createdAt,value
2023-04-13T00:00:10.889Z,99282.47
2023-04-13T00:02:39.994Z,99269.22
2023-04-13T00:05:12.082Z,99260.59
2023-04-13T00:07:40.560Z,99276.13
2023-04-13T00:10:10.568Z,99251.59
2023-04-13T00:12:38.883Z,99262.22
2023-04-13T00:15:07.604Z,99268.88
2023-04-13T00:17:35.354Z,99265.69
2023-04-13T00:20:08.257Z,99270.34
2023-04-13T00:22:38.032Z,99263.59
2023-04-13T00:25:06.557Z,99266.97
2023-04-13T00:27:34.326Z,99260.22
2023-04-13T00:30:02.218Z,99257.97
2023-04-13T00:32:30.155Z,99264.31
2023-04-13T00:34:57.954Z,99256.81
2023-04-13T00:37:25.846Z,99262.88
2023-04-13T00:39:55.915Z,99254.91
2023-04-13T00:42:23.747Z,99268.88
2023-04-13T00:44:51.986Z,99262.44
2023-04-13T00:47:27.482Z,99254.78
2023-04-13T00:49:56.498Z,99245.16
2023-04-13T00:52:24.794Z,99252.53
2023-04-13T00:54:56.215Z,99261.41
2023-04-13T00:57:27.159Z,99258.69
2023-04-13T00:59:55.924Z,99257.03
2023-04-13T01:02:26.533Z,99260.75
2023-04-13T01:04:55.995Z,99252.78
2023-04-13T01:07:32.188Z,99250.81
2023-04-13T01:10:05.139Z,99246.88
2023-04-13T01:12:40.798Z,99234.59
2023-04-13T01:15:12.705Z,99241.47
2023-04-13T01:17:44.914Z,99236.84
2023-04-13T01:20:16.136Z,99239.34
2023-04-13T01:22:50.805Z,99247.78
2023-04-13T01:25:39.063Z,99237.69
2023-04-13T01:28:10.396Z,99237.22
2023-04-13T01:30:39.716Z,99240.22
2023-04-13T01:33:09.657Z,99230.88
2023-04-13T01:35:39.133Z,99251.16
2023-04-13T01:38:08.739Z,99244.06
2023-04-13T01:40:41.230Z,99238.94
2023-04-13T01:43:12.230Z,99250.53
2023-04-13T01:46:04.055Z,99257.44
2023-04-13T01:48:38.705Z,99249.13
2023-04-13T01:51:24.291Z,99268.09
2023-04-13T01:54:07.774Z,99265.69
2023-04-13T01:56:37.498Z,99281.53
2023-04-13T01:59:07.061Z,99275.53
2023-04-13T02:01:34.929Z,99280.34
2023-04-13T02:04:03.658Z,99280.53
2023-04-13T02:06:33.020Z,99284.72
2023-04-13T02:09:06.298Z,99292.41
2023-04-13T02:11:34.427Z,99294.66
2023-04-13T02:14:07.808Z,99294.19
2023-04-13T02:16:35.974Z,99298.84
2023-04-13T02:19:03.771Z,99293.44
2023-04-13T02:21:31.738Z,99306.97
2023-04-13T02:23:59.697Z,99309.69
2023-04-13T02:26:27.626Z,99310.91
2023-04-13T02:28:56.523Z,99312.38
2023-04-13T02:31:25.716Z,99317.81
2023-04-13T02:33:53.742Z,99322.03
2023-04-13T02:36:22.498Z,99325.47
2023-04-13T02:38:57.554Z,99340.22
2023-04-13T02:41:35.272Z,99340.69
2023-04-13T02:44:03.431Z,99345.63
2023-04-13T02:46:42.936Z,99359.94
2023-04-13T02:49:15.399Z,99362.63
2023-04-13T02:51:56.103Z,99364.13
2023-04-13T02:54:36.295Z,99365.59
2023-04-13T02:57:05.338Z,99368.06
2023-04-13T02:59:36.548Z,99370.00
2023-04-13T03:02:08.738Z,99382.03
2023-04-13T03:04:37.306Z,99370.16
2023-04-13T03:07:10.029Z,99384.16
2023-04-13T03:09:42.779Z,99387.34
2023-04-13T03:12:10.726Z,99395.16
2023-04-13T03:14:40.254Z,99404.47
2023-04-13T03:17:12.651Z,99402.22
2023-04-13T03:19:42.658Z,99407.66
2023-04-13T03:22:11.239Z,99405.84
2023-04-13T03:24:44.875Z,99410.94
2023-04-13T03:27:18.435Z,99412.91
2023-04-13T03:29:49.387Z,99423.44
2023-04-13T03:32:23.751Z,99413.53
2023-04-13T03:34:58.720Z,99415.94
2023-04-13T03:37:29.770Z,99430.38
2023-04-13T03:40:00.632Z,99430.53
2023-04-13T03:42:32.043Z,99430.53
2023-04-13T03:45:00.931Z,99442.56
2023-04-13T03:47:30.274Z,99446.03
2023-04-13T03:49:58.231Z,99445.28
2023-04-13T03:52:26.496Z,99451.56
2023-04-13T03:54:59.639Z,99441.53
2023-04-13T03:57:31.256Z,99450.84
2023-04-13T04:00:01.155Z,99455.06
2023-04-13T04:02:48.856Z,99455.81
2023-04-13T04:05:25.416Z,99461.50
2023-04-13T04:08:00.912Z,99460.28
2023-04-13T04:10:30.053Z,99465.25
2023-04-13T04:12:59.359Z,99474.56
2023-04-13T04:15:28.799Z,99474.31
2023-04-13T04:18:03.476Z,99482.84
2023-04-13T04:20:33.025Z,99476.09
2023-04-13T04:23:04.934Z,99487.38
2023-04-13T04:25:40.988Z,99495.66
2023-04-13T04:28:09.105Z,99497.59
2023-04-13T04:30:37.082Z,99498.34
2023-04-13T04:33:07.744Z,99496.84
2023-04-13T04:35:43.210Z,99492.63
2023-04-13T04:38:11.095Z,99496.53
2023-04-13T04:40:45.085Z,99503.59
2023-04-13T04:43:15.274Z,99512.94
2023-04-13T04:45:51.999Z,99506.00
2023-04-13T04:48:24.942Z,99518.34
2023-04-13T04:50:55.972Z,99524.50
2023-04-13T04:53:26.287Z,99533.81
2023-04-13T04:55:54.831Z,99536.84
2023-04-13T04:58:36.854Z,99532.47
2023-04-13T05:01:05.555Z,99525.41
2023-04-13T05:03:36.144Z,99535.00
2023-04-13T05:06:18.911Z,99535.31
2023-04-13T05:08:46.697Z,99528.72
2023-04-13T05:11:15.428Z,99532.16
2023-04-13T05:13:43.414Z,99537.13
2023-04-13T05:16:24.558Z,99542.38
2023-04-13T05:18:55.226Z,99540.72
2023-04-13T05:21:41.350Z,99552.91
2023-04-13T05:24:11.375Z,99552.78
2023-04-13T05:26:40.260Z,99560.13
2023-04-13T05:29:08.558Z,99569.44
2023-04-13T05:31:40.466Z,99578.75
2023-04-13T05:34:09.843Z,99585.81
2023-04-13T05:36:39.157Z,99583.72
2023-04-13T05:39:11.859Z,99592.88
2023-04-13T05:41:39.673Z,99594.66
2023-04-13T05:44:08.158Z,99593.94
2023-04-13T05:46:37.591Z,99595.13
2023-04-13T05:49:06.793Z,99592.88
2023-04-13T05:51:36.062Z,99606.84
2023-04-13T05:54:03.891Z,99609.56
2023-04-13T05:56:34.307Z,99616.94
2023-04-13T05:59:03.553Z,99618.44
2023-04-13T06:01:31.642Z,99623.84
2023-04-13T06:04:00.778Z,99625.38
2023-04-13T06:06:30.345Z,99628.09
2023-04-13T06:09:00.140Z,99638.91
2023-04-13T06:11:28.341Z,99637.69
2023-04-13T06:13:58.050Z,99646.28
2023-04-13T06:16:27.494Z,99642.81
2023-04-13T06:18:56.005Z,99635.75
2023-04-13T06:21:23.888Z,99635.28
2023-04-13T06:23:51.815Z,99640.09
2023-04-13T06:26:29.901Z,99643.41
2023-04-13T06:28:58.522Z,99642.06
2023-04-13T06:31:27.715Z,99643.84
2023-04-13T06:33:57.675Z,99647.63
2023-04-13T06:36:30.697Z,99655.59
2023-04-13T06:39:00.289Z,99655.88
2023-04-13T06:41:31.032Z,99662.06
2023-04-13T06:44:14.306Z,99676.81
2023-04-13T06:46:57.374Z,99676.81
2023-04-13T06:49:26.776Z,99684.81
2023-04-13T06:51:54.841Z,99686.00
2023-04-13T06:54:22.792Z,99684.03
2023-04-13T06:56:58.902Z,99683.13
2023-04-13T06:59:26.656Z,99687.34
2023-04-13T07:01:54.768Z,99691.25
2023-04-13T07:04:25.172Z,99698.94
2023-04-13T07:06:55.220Z,99697.13
2023-04-13T07:09:23.038Z,99695.72
2023-04-13T07:11:50.852Z,99705.34
2023-04-13T07:14:20.054Z,99721.31
2023-04-13T07:16:48.526Z,99720.72
2023-04-13T07:19:20.399Z,99729.31
2023-04-13T07:21:48.302Z,99723.75
2023-04-13T07:24:16.081Z,99724.19
2023-04-13T07:26:45.702Z,99738.34
2023-04-13T07:29:14.119Z,99731.69
2023-04-13T07:31:50.263Z,99736.31
2023-04-13T07:34:18.269Z,99758.75
2023-04-13T07:36:48.598Z,99759.22
2023-04-13T07:39:20.007Z,99761.34
2023-04-13T07:41:50.225Z,99763.00
2023-04-13T07:44:27.698Z,99769.66
2023-04-13T07:46:57.247Z,99772.63
2023-04-13T07:49:27.364Z,99782.91
2023-04-13T07:51:56.653Z,99779.56
2023-04-13T07:54:26.050Z,99781.31
2023-04-13T07:56:56.385Z,99786.84
2023-04-13T07:59:27.294Z,99795.56
2023-04-13T08:01:56.907Z,99797.31
2023-04-13T08:04:25.435Z,99799.06
2023-04-13T08:06:54.728Z,99798.34
2023-04-13T08:09:22.568Z,99796.97
2023-04-13T08:11:51.450Z,99798.72
2023-04-13T08:14:19.237Z,99805.72
2023-04-13T08:16:49.963Z,99817.53
2023-04-13T08:19:19.382Z,99810.56
2023-04-13T08:21:51.211Z,99816.53
2023-04-13T08:24:21.478Z,99839.13
2023-04-13T08:26:49.468Z,99828.81
2023-04-13T08:29:18.053Z,99845.44
2023-04-13T08:31:46.930Z,99842.69
2023-04-13T08:34:14.859Z,99842.50
2023-04-13T08:36:45.954Z,99853.56
2023-04-13T08:39:15.147Z,99855.47
2023-04-13T08:41:46.536Z,99867.19
2023-04-13T08:44:17.489Z,99878.66
2023-04-13T08:46:48.846Z,99877.44
2023-04-13T08:49:21.750Z,99871.16
2023-04-13T08:52:29.938Z,99888.59
2023-04-13T08:55:00.876Z,99895.91
2023-04-13T08:57:32.366Z,99897.59
2023-04-13T09:00:01.077Z,99896.56
2023-04-13T09:02:35.390Z,99909.69
2023-04-13T09:05:16.269Z,99911.41
2023-04-13T09:07:53.832Z,99913.97
2023-04-13T09:10:23.315Z,99916.69
2023-04-13T09:12:51.271Z,99922.69
2023-04-13T09:15:19.307Z,99924.25
2023-04-13T09:18:07.829Z,99930.50
2023-04-13T09:20:38.438Z,99929.22
2023-04-13T09:23:17.808Z,99932.91
2023-04-13T09:25:46.789Z,99950.16
2023-04-13T09:28:18.194Z,99948.31
2023-04-13T09:30:46.431Z,99951.34
2023-04-13T09:33:17.015Z,99948.28
2023-04-13T09:35:44.871Z,99951.03
2023-04-13T09:38:15.529Z,99966.81
2023-04-13T09:40:49.911Z,99969.84
2023-04-13T09:43:17.762Z,99976.50
2023-04-13T09:45:45.586Z,99984.84
2023-04-13T09:48:21.349Z,99982.09
2023-04-13T09:50:59.464Z,99981.16
2023-04-13T09:53:30.064Z,100000.16
2023-04-13T09:55:59.236Z,99999.88
2023-04-13T09:58:27.180Z,100006.28
2023-04-13T10:00:55.111Z,100015.59
2023-04-13T10:03:23.825Z,100018.50
2023-04-13T10:05:59.380Z,100013.34
2023-04-13T10:11:02.347Z,100038.81
2023-04-13T10:13:36.814Z,100034.69
2023-04-13T10:16:22.624Z,100038.34
2023-04-13T10:19:00.731Z,100039.28
2023-04-13T10:21:33.386Z,100049.97
2023-04-13T10:24:03.294Z,100051.00
2023-04-13T10:26:31.897Z,100052.78
2023-04-13T10:29:01.537Z,100072.06
2023-04-13T10:31:39.806Z,100064.75
2023-04-13T10:34:07.905Z,100066.63
2023-04-13T10:36:39.658Z,100088.69
2023-04-13T10:39:09.562Z,100089.84
2023-04-13T10:41:38.074Z,100088.44
2023-04-13T10:44:07.542Z,100093.34
2023-04-13T10:46:36.335Z,100093.06
2023-04-13T10:49:05.310Z,100094.81
2023-04-13T10:51:40.075Z,100103.84
2023-04-13T10:54:10.053Z,100105.09
2023-04-13T10:56:38.221Z,100108.56
2023-04-13T10:59:06.003Z,100110.59
2023-04-13T11:01:35.884Z,100117.78
2023-04-13T11:04:07.880Z,100127.28
2023-04-13T11:06:38.887Z,100137.13
2023-04-13T11:09:08.391Z,100136.75
2023-04-13T11:11:40.014Z,100143.13
2023-04-13T11:14:08.061Z,100137.91
2023-04-13T11:16:45.122Z,100137.91
2023-04-13T11:19:13.064Z,100152.00
2023-04-13T11:21:40.870Z,100155.19
2023-04-13T11:24:10.036Z,100160.28
2023-04-13T11:26:39.139Z,100175.75
2023-04-13T11:29:07.137Z,100168.81
2023-04-13T11:31:39.014Z,100179.25
2023-04-13T11:34:09.605Z,100184.97
2023-04-13T11:36:38.964Z,100188.03
2023-04-13T11:39:10.653Z,100183.69
2023-04-13T11:41:44.336Z,100175.44
2023-04-13T11:44:12.396Z,100182.25
2023-04-13T11:46:40.302Z,100187.59
2023-04-13T11:49:08.794Z,100196.75
2023-04-13T11:51:37.570Z,100191.69
2023-04-13T11:54:06.883Z,100188.97
2023-04-13T11:56:34.972Z,100195.97
2023-04-13T11:59:04.200Z,100194.00
2023-04-13T12:01:34.463Z,100196.09
2023-04-13T12:04:14.524Z,100194.13
2023-04-13T12:06:47.268Z,100193.06
2023-04-13T12:09:17.826Z,100201.47
2023-04-13T12:11:51.623Z,100201.84
2023-04-13T12:14:49.755Z,100201.84
2023-04-13T12:17:36.526Z,100204.50
2023-04-13T12:20:04.147Z,100212.16
2023-04-13T12:23:03.087Z,100225.44
2023-04-13T12:25:35.445Z,100222.41
2023-04-13T12:28:04.586Z,100227.34
2023-04-13T12:30:34.680Z,100230.72
2023-04-13T12:33:02.570Z,100225.78
2023-04-13T12:35:30.397Z,100242.25
2023-04-13T12:37:58.275Z,100238.22
2023-04-13T12:40:26.473Z,100242.03
2023-04-13T12:42:54.229Z,100238.19
2023-04-13T12:45:22.146Z,100250.16
2023-04-13T12:47:51.320Z,100254.38
2023-04-13T12:50:19.144Z,100252.38
2023-04-13T12:52:46.942Z,100272.41
2023-04-13T12:55:14.851Z,100289.63
2023-04-13T12:57:42.600Z,100276.97
2023-04-13T13:00:12.116Z,100273.78
2023-04-13T13:02:40.164Z,100279.56
2023-04-13T13:05:10.340Z,100277.94
2023-04-13T13:07:38.159Z,100278.03
2023-04-13T13:10:15.198Z,100282.34
2023-04-13T13:12:54.042Z,100288.94
2023-04-13T13:15:21.860Z,100285.25
2023-04-13T13:17:49.861Z,100298.13
2023-04-13T13:20:18.992Z,100308.00
2023-04-13T13:22:48.359Z,100304.06
2023-04-13T13:25:16.250Z,100315.28
2023-04-13T13:30:15.588Z,100314.97
2023-04-13T13:32:43.503Z,100319.25
2023-04-13T13:35:11.712Z,100314.84
2023-04-13T13:37:40.868Z,100317.56
2023-04-13T13:40:13.000Z,100334.97
2023-04-13T13:42:51.241Z,100311.44
2023-04-13T13:45:19.971Z,100318.75
2023-04-13T13:47:52.017Z,100324.47
2023-04-13T13:50:21.835Z,100343.84
2023-04-13T13:53:03.127Z,100333.13
2023-04-13T13:55:37.559Z,100344.41
2023-04-13T13:58:05.325Z,100351.56
2023-04-13T14:00:33.162Z,100355.00
2023-04-13T14:03:01.128Z,100352.41
2023-04-13T14:05:29.163Z,100341.69
2023-04-13T14:07:58.285Z,100353.66
2023-04-13T14:10:26.162Z,100353.03
2023-04-13T14:12:55.522Z,100355.16
2023-04-13T14:15:23.508Z,100354.47
2023-04-13T14:18:06.528Z,100349.47
2023-04-13T14:20:40.024Z,100352.53
2023-04-13T14:23:10.046Z,100359.41
2023-04-13T14:25:39.655Z,100370.78
2023-04-13T14:28:09.001Z,100355.81
2023-04-13T14:30:36.943Z,100370.44
2023-04-13T14:33:05.765Z,100376.63
2023-04-13T14:35:33.921Z,100377.97
2023-04-13T14:38:01.893Z,100378.16
2023-04-13T14:40:31.787Z,100368.69
2023-04-13T14:42:59.554Z,100372.97
2023-04-13T14:45:27.400Z,100370.72
2023-04-13T14:47:55.731Z,100379.78
2023-04-13T14:50:24.272Z,100376.16
2023-04-13T14:52:52.551Z,100389.53
2023-04-13T14:55:20.493Z,100380.25
2023-04-13T14:57:50.045Z,100387.63
2023-04-13T15:00:22.108Z,100396.50
2023-04-13T15:02:52.472Z,100394.97
2023-04-13T15:05:21.230Z,100395.94
2023-04-13T15:07:50.766Z,100391.97
2023-04-13T15:10:19.140Z,100401.75
2023-04-13T15:12:48.159Z,100402.50
2023-04-13T15:15:17.477Z,100404.22
2023-04-13T15:17:45.317Z,100415.75
2023-04-13T15:20:13.182Z,100411.41
2023-04-13T15:22:41.037Z,100409.34
2023-04-13T15:25:09.365Z,100405.06
2023-04-13T15:27:37.244Z,100418.47
2023-04-13T15:30:05.768Z,100424.88
2023-04-13T15:32:36.275Z,100427.94
2023-04-13T15:35:04.331Z,100432.94
2023-04-13T15:37:32.170Z,100432.66
2023-04-13T15:39:59.930Z,100431.06
2023-04-13T15:42:27.690Z,100425.34
2023-04-13T15:44:55.463Z,100423.38
2023-04-13T15:47:23.688Z,100431.53
2023-04-13T15:49:52.847Z,100431.25
2023-04-13T15:52:20.696Z,100443.34
2023-04-13T15:54:48.461Z,100440.94
2023-04-13T15:57:17.424Z,100440.72
2023-04-13T15:59:45.642Z,100448.94
2023-04-13T16:02:13.635Z,100452.25
2023-04-13T16:04:41.664Z,100453.41
2023-04-13T16:07:14.262Z,100451.63
2023-04-13T16:09:44.572Z,100448.41
2023-04-13T16:12:12.515Z,100441.28
2023-04-13T16:14:41.725Z,100447.09
2023-04-13T16:17:10.248Z,100449.78
2023-04-13T16:19:39.611Z,100443.56
2023-04-13T16:22:10.448Z,100452.66
2023-04-13T16:24:41.051Z,100451.22
2023-04-13T16:27:10.122Z,100452.34
2023-04-13T16:29:38.047Z,100459.53
2023-04-13T16:32:06.762Z,100459.84
2023-04-13T16:34:39.959Z,100472.13
2023-04-13T16:37:15.756Z,100464.88
2023-04-13T16:39:48.824Z,100465.88
2023-04-13T16:42:17.867Z,100473.81
2023-04-13T16:44:46.141Z,100471.97
2023-04-13T16:47:13.931Z,100471.28
2023-04-13T16:49:41.969Z,100486.28
2023-04-13T16:52:09.732Z,100479.84
2023-04-13T16:54:37.596Z,100484.72
2023-04-13T16:57:06.850Z,100486.41
2023-04-13T16:59:34.637Z,100488.78
2023-04-13T17:02:03.154Z,100484.88
2023-04-13T17:04:30.979Z,100495.00
2023-04-13T17:07:01.639Z,100491.69
2023-04-13T17:09:29.906Z,100501.19
2023-04-13T17:11:57.660Z,100505.75
2023-04-13T17:14:26.856Z,100506.03
2023-04-13T17:16:54.641Z,100500.66
2023-04-13T17:19:23.484Z,100506.13
2023-04-13T17:21:51.859Z,100499.81
2023-04-13T17:24:19.949Z,100509.16
2023-04-13T17:26:47.762Z,100509.38
2023-04-13T17:29:15.548Z,100510.41
2023-04-13T17:31:44.711Z,100512.56
2023-04-13T17:34:12.711Z,100516.63
2023-04-13T17:36:40.450Z,100513.59
2023-04-13T17:39:08.350Z,100519.75
2023-04-13T17:41:36.222Z,100520.38
2023-04-13T17:44:04.269Z,100531.22
2023-04-13T17:46:32.176Z,100533.59
2023-04-13T17:49:01.895Z,100547.91
2023-04-13T17:51:30.788Z,100544.75
2023-04-13T17:53:58.597Z,100551.75
2023-04-13T17:56:26.411Z,100542.22
2023-04-13T17:58:54.211Z,100555.03
2023-04-13T18:01:25.661Z,100560.69
2023-04-13T18:03:53.669Z,100561.88
2023-04-13T18:06:22.822Z,100563.13
2023-04-13T18:08:50.567Z,100561.59
2023-04-13T18:11:18.387Z,100562.53
2023-04-13T18:13:46.195Z,100567.53
2023-04-13T18:16:14.446Z,100568.94
2023-04-13T18:18:42.450Z,100578.63
2023-04-13T18:21:10.245Z,100573.47
2023-04-13T18:23:39.851Z,100581.66
2023-04-13T18:26:07.668Z,100578.97
2023-04-13T18:28:35.866Z,100578.97
2023-04-13T18:31:04.102Z,100587.63
2023-04-13T18:33:32.036Z,100586.28
2023-04-13T18:35:59.849Z,100583.47
2023-04-13T18:38:28.147Z,100595.97
2023-04-13T18:40:57.375Z,100593.84
2023-04-13T18:43:25.417Z,100602.22
2023-04-13T18:45:53.191Z,100599.66
2023-04-13T18:48:20.976Z,100611.97
2023-04-13T18:50:49.318Z,100612.47
2023-04-13T18:53:17.873Z,100617.03
2023-04-13T18:55:49.255Z,100623.72
2023-04-13T18:58:19.553Z,100622.19
2023-04-13T19:00:47.456Z,100625.75
2023-04-13T19:03:15.663Z,100641.22
2023-04-13T19:05:43.530Z,100638.06
2023-04-13T19:08:13.339Z,100638.19
2023-04-13T19:10:43.660Z,100646.38
2023-04-13T19:13:11.527Z,100643.53
2023-04-13T19:15:40.683Z,100651.41
2023-04-13T19:18:11.192Z,100652.03
2023-04-13T19:20:39.062Z,100648.84
2023-04-13T19:23:07.262Z,100656.56
2023-04-13T19:25:35.101Z,100664.59
2023-04-13T19:28:02.985Z,100668.22
2023-04-13T19:30:30.748Z,100677.28
2023-04-13T19:33:00.638Z,100669.34
2023-04-13T19:35:28.639Z,100677.38
2023-04-13T19:37:56.503Z,100683.56
2023-04-13T19:40:26.139Z,100686.03
2023-04-13T19:42:54.324Z,100684.75
2023-04-13T19:45:22.082Z,100690.22
2023-04-13T19:47:49.915Z,100691.31
2023-04-13T19:50:19.141Z,100695.69
2023-04-13T19:52:48.073Z,100704.44
2023-04-13T19:55:16.020Z,100710.56
2023-04-13T19:57:43.873Z,100719.56
2023-04-13T20:00:19.098Z,100718.09
2023-04-13T20:02:51.806Z,100729.38
2023-04-13T20:05:22.713Z,100735.25
2023-04-13T20:07:50.532Z,100727.78
2023-04-13T20:10:18.392Z,100724.88
2023-04-13T20:12:46.148Z,100730.63
2023-04-13T20:15:13.955Z,100728.09
2023-04-13T20:17:41.985Z,100729.31
2023-04-13T20:20:11.123Z,100734.53
2023-04-13T20:22:40.489Z,100731.38
2023-04-13T20:25:09.151Z,100728.22
2023-04-13T20:27:41.718Z,100731.69
2023-04-13T20:30:10.895Z,100730.94
2023-04-13T20:32:38.847Z,100741.38
2023-04-13T20:35:07.436Z,100744.88
2023-04-13T20:37:35.264Z,100741.38
2023-04-13T20:40:07.079Z,100749.66
2023-04-13T20:42:34.985Z,100753.88
2023-04-13T20:45:04.397Z,100741.50
2023-04-13T20:47:32.320Z,100755.53
2023-04-13T20:50:00.631Z,100759.88
2023-04-13T20:52:29.880Z,100748.59
2023-04-13T20:54:58.284Z,100758.69
2023-04-13T20:57:27.526Z,100751.41
2023-04-13T20:59:55.555Z,100752.88
2023-04-13T21:02:23.483Z,100760.69
2023-04-13T21:04:51.613Z,100761.13
2023-04-13T21:07:19.363Z,100764.31
2023-04-13T21:09:47.191Z,100769.84
2023-04-13T21:12:14.937Z,100772.13
2023-04-13T21:14:44.096Z,100767.03
2023-04-13T21:17:13.959Z,100776.91
2023-04-13T21:19:41.801Z,100785.06
2023-04-13T21:22:09.614Z,100777.34
2023-04-13T21:24:37.436Z,100787.34
2023-04-13T21:27:05.201Z,100774.84
2023-04-13T21:29:32.956Z,100784.19
2023-04-13T21:32:02.503Z,100782.22
2023-04-13T21:34:30.404Z,100775.19
2023-04-13T21:36:58.200Z,100780.84
2023-04-13T21:39:26.002Z,100778.69
2023-04-13T21:41:53.766Z,100770.66
2023-04-13T21:44:28.852Z,100776.09
2023-04-13T21:46:58.409Z,100776.22
2023-04-13T21:49:27.761Z,100777.41
2023-04-13T21:51:55.580Z,100775.56
2023-04-13T21:54:23.453Z,100769.59
2023-04-13T21:56:51.311Z,100777.28
2023-04-13T21:59:19.072Z,100774.25
2023-04-13T22:01:47.128Z,100774.69
2023-04-13T22:04:15.393Z,100777.09
2023-04-13T22:06:44.582Z,100770.44
2023-04-13T22:09:12.569Z,100778.16
2023-04-13T22:11:40.888Z,100771.44
2023-04-13T22:14:08.764Z,100776.97
2023-04-13T22:16:36.680Z,100775.47
2023-04-13T22:19:04.549Z,100777.41
2023-04-13T22:21:35.455Z,100778.84
2023-04-13T22:24:04.815Z,100781.31
2023-04-13T22:26:32.655Z,100783.06
2023-04-13T22:29:00.655Z,100791.88
2023-04-13T22:31:28.698Z,100786.84
2023-04-13T22:33:56.498Z,100791.97
2023-04-13T22:36:24.289Z,100794.88
2023-04-13T22:38:52.057Z,100795.75
2023-04-13T22:41:21.440Z,100797.69
2023-04-13T22:43:49.216Z,100792.72
2023-04-13T22:46:17.053Z,100789.44
2023-04-13T22:48:44.827Z,100793.13
2023-04-13T22:51:12.629Z,100796.25
2023-04-13T22:53:40.486Z,100795.19
2023-04-13T22:56:08.382Z,100793.09
2023-04-13T22:58:37.529Z,100795.44
2023-04-13T23:01:05.860Z,100795.19
2023-04-13T23:03:33.907Z,100787.34
2023-04-13T23:06:01.794Z,100784.50
2023-04-13T23:08:30.232Z,100786.88
2023-04-13T23:10:58.015Z,100792.63
2023-04-13T23:13:26.194Z,100787.44
2023-04-13T23:16:01.408Z,100790.25
2023-04-13T23:18:29.575Z,100782.97
2023-04-13T23:20:57.337Z,100791.97
2023-04-13T23:23:25.130Z,100781.88
2023-04-13T23:25:53.078Z,100784.19
2023-04-13T23:28:20.835Z,100787.66
2023-04-13T23:30:48.590Z,100785.44
2023-04-13T23:33:17.710Z,100786.53
2023-04-13T23:35:52.985Z,100793.84
2023-04-13T23:38:20.748Z,100791.91
2023-04-13T23:40:48.526Z,100793.19
2023-04-13T23:43:16.362Z,100790.66
2023-04-13T23:45:44.238Z,100782.78
2023-04-13T23:48:12.027Z,100786.84
2023-04-13T23:50:41.143Z,100793.53
2023-04-13T23:53:08.903Z,100793.78
2023-04-13T23:55:36.728Z,100797.25
2023-04-13T23:58:04.716Z,100792.94
